Time;durP1;ratioP1;P1;durP2;ratioP2;P2;SDS_P1;SDS_P2;PMS_P1;PMS_P2;Temp;Humidity;BMP_temperature;BMP_pressure;BME280_temperature;BME280_humidity;BME280_pressure;Samples;Min_cycle;Max_cycle;Signal;HPM_P1;HPM_P2
2022/08/24 00:00:49;;;;;;;8.38;5.57;;;21.40;69.90;;;;;;5053061;28;20071;-74
2022/08/24 00:03:15;;;;;;;10.63;5.80;;;21.40;69.80;;;;;;5053103;28;20025;-74
2022/08/24 00:05:41;;;;;;;13.18;6.35;;;21.40;70.60;;;;;;5053046;28;20033;-74
2022/08/24 00:08:07;;;;;;;8.93;6.05;;;21.40;69.80;;;;;;5052996;28;20021;-74
2022/08/24 00:10:33;;;;;;;8.15;6.50;;;21.40;69.90;;;;;;5036545;28;20036;-74
2022/08/24 00:12:58;;;;;;;8.35;5.53;;;21.40;70.10;;;;;;5032904;28;20033;-74
2022/08/24 00:15:24;;;;;;;7.20;5.60;;;21.30;70.10;;;;;;5031659;28;20033;-74
2022/08/24 00:17:50;;;;;;;7.55;5.60;;;21.30;70.10;;;;;;5032802;28;20031;-74
2022/08/24 00:20:16;;;;;;;10.70;5.57;;;21.30;70.10;;;;;;5032998;28;20498;-75
2022/08/24 00:22:42;;;;;;;6.68;5.32;;;21.30;70.20;;;;;;5032783;28;20044;-74
2022/08/24 00:25:10;;;;;;;7.78;5.43;;;21.30;70.20;;;;;;5027230;28;20037;-74
2022/08/24 00:27:36;;;;;;;10.27;5.15;;;21.30;70.30;;;;;;5015076;28;20414;-74
2022/08/24 00:30:08;;;;;;;6.18;4.85;;;21.30;70.50;;;;;;5032891;28;20029;-74
2022/08/24 00:32:36;;;;;;;6.82;5.03;;;21.30;70.60;;;;;;5032803;28;20526;-74
2022/08/24 00:35:04;;;;;;;9.75;6.07;;;21.30;70.50;;;;;;5032222;28;20029;-74
2022/08/24 00:37:30;;;;;;;7.40;5.15;;;21.30;70.60;;;;;;5015098;28;20447;-74
2022/08/24 00:39:56;;;;;;;8.10;5.53;;;21.30;70.60;;;;;;5032751;28;20022;-74
2022/08/24 00:42:23;;;;;;;8.70;5.63;;;21.40;70.60;;;;;;5036757;28;20029;-75
2022/08/24 00:44:49;;;;;;;10.05;6.72;;;21.40;70.60;;;;;;5052663;28;20025;-74
2022/08/24 00:47:22;;;;;;;8.57;5.85;;;21.40;70.60;;;;;;5052601;28;20108;-75
2022/08/24 00:49:58;;;;;;;10.75;5.80;;;21.40;70.70;;;;;;5052638;28;20035;-74
2022/08/24 00:52:33;;;;;;;10.50;5.70;;;21.40;70.60;;;;;;5052495;28;20025;-74
2022/08/24 00:55:12;;;;;;;8.32;6.13;;;21.40;70.50;;;;;;5030877;28;20026;-74
2022/08/24 00:57:40;;;;;;;12.18;6.00;;;21.40;70.40;;;;;;5032734;28;20026;-74
2022/08/24 01:00:19;;;;;;;8.60;5.63;;;21.50;70.40;;;;;;5032556;28;20105;-74
2022/08/24 01:02:47;;;;;;;9.30;6.35;;;21.40;70.50;;;;;;5032467;28;20021;-74
2022/08/24 01:05:15;;;;;;;11.18;7.07;;;21.40;70.30;;;;;;5053971;28;20083;-74
2022/08/24 01:07:41;;;;;;;8.10;6.10;;;21.40;70.30;;;;;;5055999;28;20053;-74
2022/08/24 01:10:13;;;;;;;15.65;7.22;;;21.50;70.30;;;;;;5044203;28;20388;-74
2022/08/24 01:12:44;;;;;;;11.90;7.07;;;21.40;70.30;;;;;;5034737;28;20037;-74
2022/08/24 01:15:10;;;;;;;11.18;5.88;;;21.50;70.30;;;;;;5035972;28;20026;-74
2022/08/24 01:20:22;;;;;;;10.80;5.80;;;21.50;70.20;;;;;;5036179;28;20032;-75
2022/08/24 01:23:21;;;;;;;9.80;6.72;;;21.50;70.20;;;;;;5035873;28;20171;-74
2022/08/24 01:25:47;;;;;;;9.23;5.60;;;21.50;70.20;;;;;;5035826;28;20022;-74
2022/08/24 01:28:17;;;;;;;7.18;5.80;;;21.50;70.10;;;;;;5033250;28;20032;-74
2022/08/24 01:30:43;;;;;;;9.63;6.32;;;21.50;70.10;;;;;;5032293;28;20344;-74
2022/08/24 01:33:20;;;;;;;7.53;6.15;;;21.50;70.00;;;;;;5037617;28;20434;-74
2022/08/24 01:35:46;;;;;;;7.63;5.78;;;21.50;70.00;;;;;;5054298;28;20068;-74
2022/08/24 01:38:12;;;;;;;9.65;6.40;;;21.60;70.10;;;;;;5055557;28;20044;-74
2022/08/24 01:40:45;;;;;;;12.40;7.10;;;21.60;70.00;;;;;;5055494;28;20044;-74
2022/08/24 01:43:13;;;;;;;10.30;6.70;;;21.60;70.00;;;;;;5037579;28;20052;-74
2022/08/24 01:45:40;;;;;;;7.95;5.97;;;21.60;70.00;;;;;;5055354;28;20021;-74
2022/08/24 01:48:09;;;;;;;7.65;6.28;;;21.60;70.00;;;;;;5037473;28;20509;-74
2022/08/24 01:50:35;;;;;;;12.93;6.97;;;21.60;70.00;;;;;;5037371;28;20028;-74
2022/08/24 01:53:03;;;;;;;9.30;6.45;;;21.60;69.90;;;;;;5037668;28;20355;-75
2022/08/24 01:55:30;;;;;;;9.45;6.28;;;21.60;69.80;;;;;;5055131;28;20029;-74
2022/08/24 01:57:56;;;;;;;9.07;6.32;;;21.60;69.70;;;;;;5055169;28;20102;-74
2022/08/24 02:00:22;;;;;;;10.55;7.07;;;21.60;69.70;;;;;;5055113;28;20059;-74
2022/08/24 02:02:48;;;;;;;10.20;7.43;;;21.60;69.70;;;;;;5055073;28;20029;-74
2022/08/24 02:05:15;;;;;;;10.70;6.43;;;21.60;69.70;;;;;;5035582;28;20060;-74
2022/08/24 02:07:41;;;;;;;10.23;7.22;;;21.60;69.70;;;;;;5035035;28;20429;-74
2022/08/24 02:10:10;;;;;;;9.65;7.45;;;21.60;69.60;;;;;;5034882;28;20026;-74
2022/08/24 02:12:39;;;;;;;9.52;6.38;;;21.50;69.60;;;;;;5034971;28;20052;-75
2022/08/24 02:15:07;;;;;;;10.10;6.40;;;21.50;69.60;;;;;;5034854;28;20471;-74
2022/08/24 02:17:34;;;;;;;10.18;7.00;;;21.50;69.60;;;;;;5034853;28;20364;-74
2022/08/24 02:20:02;;;;;;;9.68;6.72;;;21.50;69.70;;;;;;5034850;28;20097;-75
2022/08/24 02:22:28;;;;;;;9.35;7.18;;;21.40;69.60;;;;;;5034650;28;20052;-74
2022/08/24 02:24:53;;;;;;;9.60;7.18;;;21.40;69.70;;;;;;5034771;28;20030;-74
2022/08/24 02:27:19;;;;;;;10.63;6.80;;;21.40;69.80;;;;;;5034743;28;20100;-74
2022/08/24 02:29:48;;;;;;;13.77;8.32;;;21.40;70.00;;;;;;5034708;28;20109;-74
2022/08/24 02:32:14;;;;;;;9.07;6.88;;;21.40;70.10;;;;;;5033399;28;20021;-74
2022/08/24 02:34:40;;;;;;;9.70;6.88;;;21.40;70.10;;;;;;5047954;28;20075;-74
2022/08/24 02:37:06;;;;;;;9.48;7.45;;;21.40;70.20;;;;;;5054359;28;20049;-74
2022/08/24 02:39:32;;;;;;;13.18;8.25;;;21.40;70.20;;;;;;5054374;28;20045;-75
2022/08/24 02:41:58;;;;;;;11.57;7.90;;;21.40;71.00;;;;;;5053023;28;20026;-74
2022/08/24 02:44:23;;;;;;;14.70;9.18;;;21.40;70.10;;;;;;5054249;28;20029;-74
2022/08/24 02:46:49;;;;;;;15.85;10.15;;;21.30;70.10;;;;;;5036338;28;20028;-74
2022/08/24 02:49:15;;;;;;;12.23;8.48;;;21.30;70.30;;;;;;5054191;28;20021;-74
2022/08/24 02:51:44;;;;;;;18.65;9.85;;;21.20;70.20;;;;;;5036180;28;20021;-75
2022/08/24 02:54:11;;;;;;;14.93;8.27;;;21.10;70.20;;;;;;5053916;28;20029;-75
2022/08/24 02:56:36;;;;;;;12.18;7.18;;;21.10;70.10;;;;;;5036422;28;20356;-74
2022/08/24 02:59:02;;;;;;;13.75;9.00;;;21.00;70.10;;;;;;5053958;28;20028;-74
2022/08/24 03:01:28;;;;;;;10.25;7.70;;;21.00;70.40;;;;;;5053905;28;20024;-74
2022/08/24 03:03:55;;;;;;;10.40;7.75;;;20.90;70.40;;;;;;5028498;28;20048;-74
2022/08/24 03:06:21;;;;;;;9.88;7.07;;;20.90;70.50;;;;;;5033718;28;20045;-73
2022/08/24 03:08:47;;;;;;;7.88;6.13;;;20.80;70.50;;;;;;5033717;28;20026;-74
2022/08/24 03:11:13;;;;;;;10.65;7.95;;;20.80;70.60;;;;;;5033786;28;20503;-74
2022/08/24 03:13:39;;;;;;;13.13;8.43;;;20.80;70.70;;;;;;5033770;28;20034;-74
2022/08/24 03:16:05;;;;;;;13.20;9.35;;;20.70;71.10;;;;;;5033680;28;20025;-74
2022/08/24 03:18:32;;;;;;;13.30;8.35;;;20.70;71.50;;;;;;5033621;28;20021;-74
2022/08/24 03:20:59;;;;;;;17.83;8.65;;;20.70;71.70;;;;;;5033442;28;20046;-74
2022/08/24 03:23:26;;;;;;;13.73;9.82;;;20.70;72.00;;;;;;5033652;28;20486;-74
2022/08/24 03:25:53;;;;;;;13.50;9.13;;;20.70;72.30;;;;;;5033515;28;20037;-74
2022/08/24 03:28:20;;;;;;;12.18;8.65;;;20.70;72.40;;;;;;5033090;28;20036;-73
2022/08/24 03:30:46;;;;;;;11.02;8.25;;;20.70;72.50;;;;;;5003139;28;20055;-74
2022/08/24 03:33:12;;;;;;;11.00;8.07;;;20.70;72.50;;;;;;5016811;28;20026;-74
2022/08/24 03:35:39;;;;;;;11.45;8.25;;;20.70;72.50;;;;;;5053143;28;20025;-74
2022/08/24 03:38:06;;;;;;;10.57;8.07;;;20.70;72.40;;;;;;5053282;28;20470;-74
2022/08/24 03:40:32;;;;;;;12.60;8.43;;;20.70;72.40;;;;;;5053231;28;20449;-74
2022/08/24 03:42:59;;;;;;;12.48;7.82;;;20.80;72.40;;;;;;5035476;28;20636;-74
2022/08/24 03:45:26;;;;;;;7.63;5.97;;;20.80;72.40;;;;;;5053061;28;20083;-74
2022/08/24 03:47:52;;;;;;;10.68;7.07;;;20.80;72.20;;;;;;5053109;28;20753;-75
2022/08/24 03:50:19;;;;;;;12.70;8.07;;;20.80;72.20;;;;;;5053096;28;20029;-73
2022/08/24 03:52:45;;;;;;;17.20;7.45;;;20.80;72.10;;;;;;5053094;28;20032;-74
2022/08/24 03:55:12;;;;;;;9.55;7.22;;;20.80;72.00;;;;;;5052871;28;20425;-74
2022/08/24 03:57:38;;;;;;;11.77;7.65;;;20.80;72.00;;;;;;5035173;28;20033;-74
2022/08/24 04:00:08;;;;;;;10.55;7.30;;;20.90;72.00;;;;;;5035026;28;20021;-74
2022/08/24 04:02:34;;;;;;;10.93;7.25;;;20.90;72.00;;;;;;5035365;28;20104;-74
2022/08/24 04:05:00;;;;;;;10.13;6.43;;;20.90;71.90;;;;;;5036511;28;20065;-74
2022/08/24 04:07:26;;;;;;;8.18;6.68;;;20.90;71.90;;;;;;5032860;28;20029;-73
2022/08/24 04:09:52;;;;;;;7.88;6.38;;;20.90;71.90;;;;;;5032882;28;20511;-74
2022/08/24 04:12:18;;;;;;;7.82;5.50;;;21.00;71.80;;;;;;5015165;28;20032;-74
2022/08/24 04:14:44;;;;;;;6.75;5.40;;;21.00;71.70;;;;;;5015033;28;20478;-74
2022/08/24 04:17:11;;;;;;;7.15;5.32;;;21.00;71.70;;;;;;5031551;28;20075;-74
2022/08/24 04:19:56;;;;;;;7.22;5.60;;;21.00;71.50;;;;;;5032438;28;20075;-74
2022/08/24 04:22:22;;;;;;;7.68;6.32;;;21.00;71.40;;;;;;5032640;28;20080;-74
2022/08/24 04:24:48;;;;;;;11.27;5.40;;;21.00;71.40;;;;;;5015036;28;20494;-74
2022/08/24 04:27:14;;;;;;;7.97;5.65;;;21.00;71.40;;;;;;5014639;28;20042;-74
2022/08/24 04:29:40;;;;;;;6.15;5.53;;;21.00;71.40;;;;;;5032498;28;20029;-73
2022/08/24 04:32:06;;;;;;;7.78;5.63;;;21.00;71.50;;;;;;5032579;28;20024;-73
2022/08/24 04:34:33;;;;;;;6.32;4.82;;;21.10;71.50;;;;;;5025995;28;20111;-74
2022/08/24 04:36:59;;;;;;;10.38;5.10;;;21.00;71.50;;;;;;5052520;28;20021;-74
2022/08/24 04:39:25;;;;;;;5.90;5.03;;;21.10;71.50;;;;;;5036189;28;20027;-74
2022/08/24 04:41:50;;;;;;;6.32;5.15;;;21.10;71.60;;;;;;5049156;28;20464;-74
2022/08/24 04:44:17;;;;;;;6.65;5.63;;;21.10;71.50;;;;;;5036542;28;20079;-74
2022/08/24 04:46:43;;;;;;;6.32;5.05;;;21.10;72.40;;;;;;5036466;28;20019;-75
2022/08/24 04:49:10;;;;;;;8.10;5.53;;;21.20;71.70;;;;;;5031547;28;20036;-73
2022/08/24 04:51:35;;;;;;;8.13;5.10;;;21.20;71.80;;;;;;5030320;28;20384;-74
2022/08/24 04:54:01;;;;;;;10.15;5.93;;;21.20;71.80;;;;;;5036340;28;20052;-73
2022/08/24 04:56:28;;;;;;;14.15;6.72;;;21.30;71.90;;;;;;5030560;28;20037;-74
2022/08/24 04:58:54;;;;;;;12.82;8.27;;;21.30;71.80;;;;;;5036092;28;20052;-73
2022/08/24 05:01:23;;;;;;;12.10;8.40;;;21.40;71.80;;;;;;5035669;28;20071;-73
2022/08/24 05:03:51;;;;;;;16.60;8.00;;;21.40;71.70;;;;;;5034544;28;20026;-74
2022/08/24 05:06:18;;;;;;;10.88;8.20;;;21.50;71.80;;;;;;5017882;28;20033;-74
2022/08/24 05:08:46;;;;;;;9.48;7.55;;;21.50;71.60;;;;;;5035942;28;20492;-74
2022/08/24 05:11:12;;;;;;;13.65;9.00;;;21.60;71.60;;;;;;5033754;28;20391;-73
2022/08/24 05:13:38;;;;;;;10.35;7.95;;;21.70;71.60;;;;;;5018280;28;20489;-73
2022/08/24 05:16:11;;;;;;;10.55;8.10;;;21.70;71.40;;;;;;5017586;28;20414;-73
2022/08/24 05:18:37;;;;;;;9.95;7.70;;;21.70;71.20;;;;;;5035434;28;20112;-73
2022/08/24 05:21:07;;;;;;;12.00;7.57;;;21.80;71.20;;;;;;5034851;28;20042;-73
2022/08/24 05:23:34;;;;;;;11.30;9.27;;;21.80;71.00;;;;;;5035578;28;20026;-73
2022/08/24 05:26:18;;;;;;;10.75;9.20;;;21.90;70.90;;;;;;5016677;28;20164;-73
2022/08/24 05:28:44;;;;;;;11.00;8.18;;;21.90;70.70;;;;;;5032311;28;20068;-73
2022/08/24 05:31:16;;;;;;;10.80;7.50;;;22.00;70.70;;;;;;5035292;28;20100;-73
2022/08/24 05:33:42;;;;;;;11.20;7.63;;;22.00;70.60;;;;;;5018270;28;20048;-73
2022/08/24 05:36:17;;;;;;;13.73;8.15;;;22.10;70.60;;;;;;5034867;28;20470;-73
2022/08/24 05:38:43;;;;;;;12.63;9.43;;;22.10;70.40;;;;;;5034902;28;20315;-73
2022/08/24 05:41:09;;;;;;;10.35;8.55;;;22.20;70.30;;;;;;5033933;28;20037;-75
2022/08/24 05:43:35;;;;;;;10.70;7.55;;;22.30;70.20;;;;;;5029478;28;20479;-74
2022/08/24 05:46:00;;;;;;;20.90;9.00;;;22.40;70.20;;;;;;5034001;28;20030;-74
2022/08/24 05:48:26;;;;;;;22.13;9.35;;;22.40;70.00;;;;;;5035130;28;20076;-74
2022/08/24 05:50:56;;;;;;;19.67;9.50;;;22.50;69.90;;;;;;5034659;28;20022;-74
2022/08/24 05:53:23;;;;;;;31.05;10.40;;;22.50;69.60;;;;;;5017019;28;20035;-74
2022/08/24 05:55:49;;;;;;;18.75;9.82;;;22.50;69.20;;;;;;5034953;28;20534;-74
2022/08/24 05:58:15;;;;;;;19.25;9.25;;;22.60;68.90;;;;;;5034326;28;20060;-74
2022/08/24 06:00:44;;;;;;;17.40;8.73;;;22.60;68.70;;;;;;5033606;28;20032;-74
2022/08/24 06:03:13;;;;;;;13.25;8.63;;;22.60;68.60;;;;;;5029197;28;20030;-73
2022/08/24 06:05:43;;;;;;;18.10;9.85;;;22.70;68.60;;;;;;5054494;28;20035;-74
2022/08/24 06:08:10;;;;;;;12.82;10.07;;;22.70;68.60;;;;;;5054827;28;20057;-74
2022/08/24 06:10:44;;;;;;;23.75;15.13;;;22.70;68.60;;;;;;5054858;28;20471;-74
2022/08/24 06:13:11;;;;;;;29.98;18.17;;;22.80;68.60;;;;;;5054765;28;20036;-74
2022/08/24 06:15:38;;;;;;;40.38;22.75;;;22.90;68.60;;;;;;5036637;28;20064;-74
2022/08/24 06:18:05;;;;;;;41.50;23.73;;;22.90;68.40;;;;;;5054676;28;20021;-74
2022/08/24 06:20:32;;;;;;;43.50;22.15;;;23.00;68.30;;;;;;5054242;28;20025;-74
2022/08/24 06:22:58;;;;;;;32.78;19.38;;;23.10;68.40;;;;;;5036535;28;20158;-74
2022/08/24 06:28:08;;;;;;;64.03;26.85;;;23.40;68.00;;;;;;5054473;28;20426;-73
2022/08/24 06:30:34;;;;;;;42.25;24.17;;;23.50;67.30;;;;;;5054308;28;20021;-74
2022/08/24 06:33:01;;;;;;;42.35;24.40;;;23.70;66.70;;;;;;5054237;28;20032;-74
2022/08/24 06:35:27;;;;;;;40.47;25.75;;;23.70;65.80;;;;;;5036160;28;20105;-74
2022/08/24 06:37:53;;;;;;;41.58;25.90;;;23.80;65.30;;;;;;5034511;28;20097;-74
2022/08/24 06:40:19;;;;;;;41.38;25.63;;;23.80;65.30;;;;;;5017459;28;20356;-73
2022/08/24 06:42:46;;;;;;;41.30;26.45;;;23.90;65.00;;;;;;5033437;28;20021;-74
2022/08/24 06:45:12;;;;;;;46.83;27.88;;;23.90;64.80;;;;;;5035057;28;20029;-74
2022/08/24 06:47:38;;;;;;;42.08;27.13;;;23.90;64.30;;;;;;5034867;28;20036;-74
2022/08/24 06:50:05;;;;;;;35.72;24.05;;;23.90;64.30;;;;;;5034885;28;20029;-74
2022/08/24 06:52:31;;;;;;;29.98;21.40;;;23.90;64.20;;;;;;5016456;28;20045;-74
2022/08/24 06:54:57;;;;;;;28.75;19.98;;;23.90;64.60;;;;;;5032605;28;20037;-73
2022/08/24 06:57:24;;;;;;;31.27;20.88;;;23.90;64.70;;;;;;5034020;28;20028;-74
2022/08/24 06:59:50;;;;;;;28.95;19.27;;;24.00;64.30;;;;;;5033987;28;20090;-73
2022/08/24 07:02:17;;;;;;;29.70;19.83;;;24.00;64.50;;;;;;5032990;28;20471;-73
2022/08/24 07:04:44;;;;;;;31.45;21.58;;;24.10;64.60;;;;;;5044659;28;20467;-74
2022/08/24 07:07:10;;;;;;;38.65;24.45;;;24.20;64.30;;;;;;5053373;28;20025;-74
2022/08/24 07:09:37;;;;;;;32.58;22.55;;;24.20;63.90;;;;;;5053731;28;20110;-74
2022/08/24 07:12:03;;;;;;;41.88;25.10;;;24.40;64.00;;;;;;5053681;28;20025;-74
2022/08/24 07:14:29;;;;;;;29.20;22.90;;;24.50;63.60;;;;;;5053570;28;20048;-74
2022/08/24 07:16:55;;;;;;;28.58;21.63;;;24.60;62.50;;;;;;5035627;28;20025;-74
2022/08/24 07:19:21;;;;;;;28.15;20.95;;;24.70;62.30;;;;;;5054014;28;20116;-74
2022/08/24 07:21:47;;;;;;;30.33;19.23;;;24.70;61.20;;;;;;5051864;28;20549;-73
2022/08/24 07:24:13;;;;;;;25.80;15.82;;;24.80;61.00;;;;;;5036003;28;20062;-74
2022/08/24 07:26:39;;;;;;;18.58;13.30;;;24.70;61.20;;;;;;5053754;28;20029;-74
2022/08/24 07:29:09;;;;;;;18.90;13.77;;;24.80;61.00;;;;;;5052343;28;20036;-74
2022/08/24 07:31:38;;;;;;;20.60;13.18;;;24.70;60.80;;;;;;5053356;28;20099;-74
2022/08/24 07:34:06;;;;;;;19.88;14.40;;;24.60;60.50;;;;;;5047399;28;20498;-74
2022/08/24 07:36:33;;;;;;;16.98;12.55;;;24.60;60.30;;;;;;5033243;28;20021;-73
2022/08/24 07:38:59;;;;;;;18.33;13.43;;;24.50;60.80;;;;;;5033369;28;20068;-73
2022/08/24 07:41:26;;;;;;;20.95;14.50;;;24.50;60.90;;;;;;5033298;28;20049;-74
2022/08/24 07:43:53;;;;;;;23.65;14.75;;;24.40;60.70;;;;;;5033166;28;20084;-74
2022/08/24 07:46:19;;;;;;;20.65;15.13;;;24.40;60.80;;;;;;5015329;28;20445;-74
2022/08/24 07:48:45;;;;;;;18.80;15.32;;;24.40;60.80;;;;;;5033098;28;20030;-74
2022/08/24 07:51:14;;;;;;;19.98;14.40;;;24.40;61.00;;;;;;5033026;28;20029;-74
2022/08/24 07:53:40;;;;;;;22.63;16.60;;;24.30;61.30;;;;;;5033010;28;20459;-74
2022/08/24 07:56:07;;;;;;;25.25;16.25;;;24.30;61.30;;;;;;5033242;28;20025;-74
2022/08/24 07:58:33;;;;;;;23.33;16.83;;;24.30;61.10;;;;;;5032931;28;20434;-74
2022/08/24 08:00:59;;;;;;;23.50;15.23;;;24.40;60.80;;;;;;5032839;28;20034;-75
2022/08/24 08:03:26;;;;;;;19.58;14.20;;;24.40;61.00;;;;;;5026962;28;20021;-74
2022/08/24 08:06:04;;;;;;;24.67;16.48;;;24.50;61.30;;;;;;5030246;28;20029;-74
2022/08/24 08:08:31;;;;;;;21.58;15.02;;;24.50;60.70;;;;;;5032600;28;20052;-74
2022/08/24 08:10:57;;;;;;;21.13;15.95;;;24.60;61.00;;;;;;5014995;28;20522;-74
2022/08/24 08:13:23;;;;;;;19.17;13.45;;;24.70;60.30;;;;;;5014782;28;20112;-74
2022/08/24 08:15:49;;;;;;;19.23;12.65;;;24.80;60.70;;;;;;5032554;28;20033;-74
2022/08/24 08:18:15;;;;;;;15.38;11.57;;;24.90;60.20;;;;;;5032703;28;20068;-73
2022/08/24 08:20:41;;;;;;;14.60;11.10;;;24.90;59.80;;;;;;5031195;28;20483;-74
2022/08/24 08:25:53;;;;;;;12.45;9.50;;;25.10;58.70;;;;;;5032991;28;20501;-73
2022/08/24 08:28:20;;;;;;;14.38;10.25;;;25.30;59.50;;;;;;5032694;28;20422;-74
2022/08/24 08:30:46;;;;;;;12.52;9.82;;;25.40;59.10;;;;;;5032624;28;20029;-74
2022/08/24 08:33:12;;;;;;;11.75;8.60;;;25.50;58.80;;;;;;5032560;28;20033;-74
2022/08/24 08:35:39;;;;;;;10.45;8.23;;;25.70;58.50;;;;;;5030863;28;20031;-74
2022/08/24 08:38:06;;;;;;;10.18;8.32;;;25.80;58.40;;;;;;5032509;28;20075;-74
2022/08/24 08:40:44;;;;;;;22.75;9.32;;;26.00;57.70;;;;;;5032425;28;20100;-74
2022/08/24 08:43:35;;;;;;;13.07;8.90;;;26.10;57.60;;;;;;5032265;28;20029;-75
2022/08/24 08:46:04;;;;;;;10.50;7.35;;;26.20;56.90;;;;;;5032395;28;20052;-74
2022/08/24 08:49:27;;;;;;;10.02;7.28;;;26.20;56.70;;;;;;5032488;28;20053;-74
2022/08/24 08:52:08;;;;;;;10.75;7.38;;;26.30;57.20;;;;;;4990752;28;20030;-74
2022/08/24 08:55:04;;;;;;;13.57;6.88;;;26.30;55.90;;;;;;4974597;28;20547;-74
2022/08/24 08:58:04;;;;;;;11.23;7.50;;;26.40;55.90;;;;;;5022719;28;20483;-74
2022/08/24 09:01:07;;;;;;;11.27;7.63;;;26.30;55.60;;;;;;5014634;28;20075;-74
2022/08/24 09:03:36;;;;;;;10.23;6.60;;;26.30;55.30;;;;;;5032276;28;20053;-74
2022/08/24 09:06:14;;;;;;;9.65;7.15;;;26.30;55.10;;;;;;5051922;28;20040;-74
2022/08/24 09:08:56;;;;;;;10.07;6.82;;;26.30;55.00;;;;;;5052180;28;20024;-74
2022/08/24 09:11:45;;;;;;;12.98;6.68;;;26.20;54.80;;;;;;5052214;28;20017;-74
2022/08/24 09:14:23;;;;;;;13.38;6.05;;;26.20;55.20;;;;;;5015771;28;20483;-74
2022/08/24 09:17:22;;;;;;;7.72;5.65;;;26.20;54.60;;;;;;5052171;28;20474;-74
2022/08/24 09:20:29;;;;;;;8.32;5.93;;;26.20;54.90;;;;;;5034224;28;20036;-74
2022/08/24 09:23:32;;;;;;;6.30;5.10;;;26.20;55.10;;;;;;5023628;28;20052;-74
2022/08/24 09:26:19;;;;;;;6.00;4.10;;;26.20;55.00;;;;;;5050674;28;20090;-73
2022/08/24 09:28:59;;;;;;;4.63;4.18;;;26.20;54.40;;;;;;5055684;28;20025;-74
2022/08/24 09:31:47;;;;;;;5.22;4.05;;;26.20;54.60;;;;;;5055692;28;20475;-74
2022/08/24 09:34:50;;;;;;;5.93;3.50;;;26.20;54.10;;;;;;5031888;28;20029;-74
2022/08/24 09:37:24;;;;;;;4.43;3.78;;;26.20;54.40;;;;;;5030338;28;20040;-74
2022/08/24 09:40:16;;;;;;;4.07;3.35;;;26.30;54.00;;;;;;5035645;28;20053;-74
2022/08/24 09:42:48;;;;;;;3.45;3.10;;;26.30;54.40;;;;;;5035578;28;20025;-74
2022/08/24 09:45:26;;;;;;;3.42;3.13;;;26.40;54.00;;;;;;5035408;28;20029;-74
2022/08/24 09:48:09;;;;;;;3.40;2.92;;;26.50;52.90;;;;;;5035371;28;20033;-73
2022/08/24 09:50:41;;;;;;;4.82;3.42;;;26.60;53.10;;;;;;5035266;28;20028;-74
2022/08/24 09:53:25;;;;;;;4.22;3.28;;;26.70;52.50;;;;;;5035219;28;20030;-74
2022/08/24 09:55:56;;;;;;;3.50;3.00;;;26.80;53.20;;;;;;5035154;28;20029;-75
2022/08/24 09:58:36;;;;;;;3.50;3.00;;;26.80;52.90;;;;;;5035068;28;20379;-74
2022/08/24 10:01:05;;;;;;;2.72;2.28;;;26.90;52.70;;;;;;5035067;28;20036;-74
2022/08/24 10:03:42;;;;;;;3.20;2.90;;;27.00;52.50;;;;;;5030714;28;20013;-75
2022/08/24 10:06:35;;;;;;;4.25;3.10;;;27.10;52.30;;;;;;5015329;28;20498;-74
2022/08/24 10:09:32;;;;;;;4.40;3.45;;;27.10;52.20;;;;;;4997569;28;20372;-73
2022/08/24 10:12:15;;;;;;;3.40;3.10;;;27.20;51.50;;;;;;5013966;28;20032;-74
2022/08/24 10:15:01;;;;;;;4.18;3.08;;;27.30;51.70;;;;;;5015073;28;20030;-74
2022/08/24 10:18:03;;;;;;;4.35;3.50;;;27.30;51.20;;;;;;5015039;28;20116;-74
2022/08/24 10:21:02;;;;;;;4.85;3.63;;;27.40;51.60;;;;;;5014751;28;20033;-75
2022/08/24 10:23:53;;;;;;;4.60;3.83;;;27.50;51.80;;;;;;5014979;28;20063;-74
2022/08/24 10:26:34;;;;;;;6.55;4.45;;;27.80;51.90;;;;;;5014931;28;20439;-73
2022/08/24 10:29:11;;;;;;;5.07;4.00;;;28.00;51.60;;;;;;5014506;28;20021;-73
2022/08/24 10:31:47;;;;;;;3.78;3.38;;;28.20;51.00;;;;;;5014576;28;20022;-74
2022/08/24 10:34:24;;;;;;;4.63;3.80;;;28.40;50.50;;;;;;5024096;28;20021;-75
2022/08/24 10:37:24;;;;;;;4.53;3.67;;;28.70;49.90;;;;;;5053242;28;20475;-73
2022/08/24 10:40:11;;;;;;;7.50;4.00;;;28.90;49.00;;;;;;5052863;28;20139;-73
2022/08/24 10:45:45;;;;;;;4.80;3.95;;;29.00;48.70;;;;;;5054030;28;20040;-74
2022/08/24 10:48:19;;;;;;;6.88;4.75;;;29.10;48.90;;;;;;5054018;28;20386;-71
2022/08/24 10:51:09;;;;;;;8.32;5.32;;;29.00;47.90;;;;;;5054255;28;20021;-74
2022/08/24 10:53:35;;;;;;;5.10;4.40;;;29.00;47.90;;;;;;5054043;28;20387;-74
2022/08/24 10:56:07;;;;;;;8.80;6.63;;;29.10;48.40;;;;;;5036001;28;20056;-73
2022/08/24 10:58:58;;;;;;;7.95;6.00;;;29.00;47.50;;;;;;5014276;28;20037;-74
2022/08/24 11:01:33;;;;;;;6.40;5.72;;;29.00;47.60;;;;;;5014240;28;20076;-73
2022/08/24 11:04:24;;;;;;;8.05;5.88;;;29.10;47.70;;;;;;5019487;28;20026;-74
2022/08/24 11:07:18;;;;;;;9.15;7.20;;;29.10;48.00;;;;;;5035539;28;20422;-74
2022/08/24 11:09:44;;;;;;;10.80;7.97;;;29.10;48.10;;;;;;5053726;28;20345;-73
2022/08/24 11:12:32;;;;;;;24.38;12.75;;;29.20;47.40;;;;;;5053525;28;20528;-73
2022/08/24 11:15:18;;;;;;;12.60;9.65;;;29.20;48.00;;;;;;5053795;28;20480;-73
2022/08/24 11:17:55;;;;;;;9.20;7.70;;;29.40;47.50;;;;;;5053473;28;20075;-73
2022/08/24 11:20:41;;;;;;;10.02;8.40;;;29.50;47.70;;;;;;5053390;28;20381;-73
2022/08/24 11:23:13;;;;;;;14.60;8.60;;;29.60;47.90;;;;;;5053462;28;20033;-74
2022/08/24 11:25:44;;;;;;;10.52;8.35;;;29.70;46.90;;;;;;5053362;28;20025;-74
2022/08/24 11:28:31;;;;;;;11.10;8.27;;;29.80;46.70;;;;;;5035529;28;20075;-73
2022/08/24 11:30:57;;;;;;;8.20;5.70;;;30.00;47.00;;;;;;5053222;28;20020;-72
2022/08/24 11:33:23;;;;;;;7.50;4.75;;;30.10;46.10;;;;;;5053208;28;20021;-72
2022/08/24 11:35:49;;;;;;;4.32;3.75;;;30.20;45.10;;;;;;5049895;28;20035;-73
2022/08/24 11:38:17;;;;;;;4.65;3.10;;;30.30;46.20;;;;;;5035356;28;20104;-72
2022/08/24 11:40:55;;;;;;;4.75;3.05;;;30.40;45.70;;;;;;5053143;28;20028;-74
2022/08/24 11:43:48;;;;;;;5.45;4.10;;;30.50;45.30;;;;;;5053210;28;20021;-75
2022/08/24 11:46:23;;;;;;;4.35;3.88;;;30.70;44.80;;;;;;5053240;28;20101;-74
2022/08/24 11:49:21;;;;;;;6.10;4.18;;;30.90;44.30;;;;;;5052758;28;20100;-73
2022/08/24 11:52:15;;;;;;;5.30;4.28;;;31.00;44.50;;;;;;5052994;28;20017;-76
2022/08/24 11:54:50;;;;;;;7.07;4.60;;;31.10;44.30;;;;;;5052714;28;20029;-76
2022/08/24 11:57:45;;;;;;;3.50;3.20;;;31.20;44.80;;;;;;5033040;28;20028;-74
2022/08/24 12:00:17;;;;;;;6.68;3.85;;;31.30;43.90;;;;;;5032684;28;20117;-73
2022/08/24 12:03:01;;;;;;;3.38;2.95;;;31.50;43.20;;;;;;5032736;28;20022;-74
2022/08/24 12:05:49;;;;;;;4.90;4.20;;;31.60;43.30;;;;;;5041557;28;20029;-74
2022/08/24 12:08:33;;;;;;;6.28;4.50;;;31.60;42.40;;;;;;5052585;28;20049;-74
2022/08/24 12:11:02;;;;;;;6.63;4.80;;;31.60;42.20;;;;;;5052546;28;20475;-73
2022/08/24 12:13:37;;;;;;;5.57;4.60;;;31.60;42.50;;;;;;5052091;28;20028;-73
2022/08/24 12:16:38;;;;;;;5.90;4.35;;;31.60;42.60;;;;;;5052425;28;20028;-74
2022/08/24 12:19:15;;;;;;;3.85;2.85;;;31.50;43.30;;;;;;5052477;28;20017;-74
2022/08/24 12:21:45;;;;;;;3.58;2.67;;;31.50;41.60;;;;;;5052359;28;20120;-74
2022/08/24 12:24:16;;;;;;;3.20;2.58;;;31.40;42.00;;;;;;5053195;28;20013;-74
2022/08/24 12:26:51;;;;;;;4.22;2.88;;;31.40;41.50;;;;;;5052552;28;20070;-74
2022/08/24 12:29:28;;;;;;;4.22;2.58;;;31.30;41.80;;;;;;5034664;28;20029;-73
2022/08/24 12:32:00;;;;;;;3.05;2.40;;;31.40;41.50;;;;;;5051085;28;20060;-74
2022/08/24 12:34:49;;;;;;;3.33;2.22;;;31.40;41.00;;;;;;5028633;28;20029;-74
2022/08/24 12:37:24;;;;;;;4.85;2.30;;;31.40;41.10;;;;;;5031334;28;20025;-74
2022/08/24 12:40:15;;;;;;;2.38;2.10;;;31.40;41.80;;;;;;5032490;28;20022;-74
2022/08/24 12:42:54;;;;;;;2.33;2.00;;;31.40;41.80;;;;;;5032420;28;20022;-73
2022/08/24 12:45:23;;;;;;;2.92;2.63;;;31.50;42.10;;;;;;5014703;28;20030;-73
2022/08/24 12:48:23;;;;;;;2.40;2.20;;;31.60;42.20;;;;;;5032293;28;20529;-73
2022/08/24 12:51:00;;;;;;;2.50;1.88;;;31.70;42.30;;;;;;5024715;28;20041;-74
2022/08/24 12:53:26;;;;;;;3.10;2.38;;;31.70;41.30;;;;;;5032324;28;20364;-74
2022/08/24 12:56:13;;;;;;;1.90;1.70;;;31.80;41.50;;;;;;5032403;28;20025;-74
2022/08/24 12:59:16;;;;;;;3.75;2.38;;;31.80;41.40;;;;;;5031213;28;20470;-74
2022/08/24 13:02:03;;;;;;;2.88;2.35;;;31.80;41.60;;;;;;5035993;28;20025;-74
2022/08/24 13:04:52;;;;;;;6.07;2.97;;;31.90;41.20;;;;;;5041428;28;20425;-74
2022/08/24 13:07:18;;;;;;;3.13;2.45;;;31.80;41.00;;;;;;5055747;28;20021;-74
2022/08/24 13:09:55;;;;;;;3.58;2.70;;;31.90;41.20;;;;;;5055963;28;20028;-74
2022/08/24 13:12:42;;;;;;;4.68;2.47;;;31.90;41.00;;;;;;5054926;28;20352;-74
2022/08/24 13:15:26;;;;;;;6.50;2.40;;;31.90;41.00;;;;;;5055774;28;20032;-74
2022/08/24 13:18:07;;;;;;;2.63;2.42;;;31.90;40.80;;;;;;5055865;28;20082;-74